Chevak, AK (99563)

7:47 PM AKDT on May 22, 2015 (GMT -0800)
Chevak | | Change Station
CLOSE
Current Station
Airport
Location: Chevak,
Elevation: 75 ft
Nearby Weather Stations

Elev 75 ft 61.54 °N, 165.60 °W | Updated 50 minutes ago

Light Rain
Light Rain
46 °F
Feels Like 39 °F
N
18
Wind Variable Wind from SE
Gusts 25 mph

Today
High -- | Low -- °F
--% Chance of Precip.
Yesterday
High -- | Low -- °F
Precip. -- in
5:53 AM 11:58 PM
Waxing Crescent, 26% visible
Pressure 29.80 in
Visibility 10.0 miles
Clouds Scattered Clouds 1600 ft
Overcast 4500 ft
Windchill 39 °F
Dew Point 45 °F
Humidity 93%
Rainfall 0.00 in
Snow Depth Not available.
UV 1 out of 12
Pollen Not available.
Air Quality Not available.
Flu Activity Local Activity
SPECI PAVA 230257Z AUTO 14016G22KT 10SM -RA SCT016 OVC045 08/07 A2980 RMK AO2 P0000

More Conditions Fewer Conditions

Pressure 29.80 in
Visibility 10.0 miles
Clouds Scattered Clouds 1600 ft
Overcast 4500 ft
Windchill 39 °F
Dew Point 45 °F
Humidity 93%
Rainfall 0.00 in
Snow Depth Not available.
UV 1 out of 12
Pollen Not available.
Air Quality Not available.
Flu Activity Local Activity
SPECI PAVA 230257Z AUTO 14016G22KT 10SM -RA SCT016 OVC045 08/07 A2980 RMK AO2 P0000

More Conditions Fewer Conditions

10-Day Weather Forecast

Almanac

Astronomy

May. 22, 2015 Rise Set
Actual Time
Civil Twilight
Nautical Twilight
Astronomical Twilight
Moon
Length of Visible Light
Length of Day
Tomorrow will be .
, % of the Moon is Illuminated

Today's Extremes

State Highs State Lows

Community

WunderPhotos

Upload Photos

1,823,383 photos uploaded!

WunderBlogs® & News

Nearby

Air Quality

  Air Quality AQ Index Pollutant
Not available.

Snow Depth

Station Depth Elevation

Earthquake Activity

City Distance Mag. Time & Date
Minimum magnitude displayed is 2.5.

Coastal Water Temperatures

Place Temperature

Stations

Nearby Weather Stations

Station Location Temp. Windchill Dew Point Humidity Wind Precip. Elev Updated Type